METAR stanice u blizini

 

LYBE - Beograd / Surčin, Srbija
Ažurirano: 11/12/2018 05:00
Vedro
Vedro
 Pravac vetra Z
Vetar: Z 15 km/h
Temperatura: -1°C
Osećaj hladnoće: -6°C
Tačka rose: -2°C
Vlažnost: 93%
Pritisak: 1016 hPa
Pregled: Vedro
Vidljivost: greater than 10 km
2018/12/11 04:00 LYBE 110400Z 26008KT CAVOK M01/M02 Q1016 NOSIG
LYBT - Beograd / Batajnica, Srbija
Ažurirano: 11/12/2018 05:00
Vedro
Vedro
 Pravac vetra JZ
Vetar: JZ 11 km/h
Temperatura: -1°C
Osećaj hladnoće: -5°C
Tačka rose: -3°C
Vlažnost: 86%
Pritisak: 1016 hPa
Pregled: Vedro
Vidljivost: greater than 10 km
2018/12/11 04:00 LYBT 110400Z 22006KT CAVOK M01/M03 Q1016 NOSIG
LYVR - Vršac, Srbija
Ažurirano: 11/12/2018 05:00
Vedro
Vedro
 Pravac vetra varies
Vetar: varies 4 km/h
Temperatura: -1°C
Tačka rose: -3°C
Vlažnost: 86%
Pritisak: 1015 hPa
Pregled: Vedro
Vidljivost: greater than 10 km
2018/12/11 04:00 LYVR 110400Z VRB02KT CAVOK M01/M03 Q1015 NOSIG
 
LYKV - Lađevci, Srbija
Ažurirano: 11/12/2018 05:00
Mostly Cloudy
Mostly Cloudy
 Pravac vetra ZSZ
Vetar: ZSZ 4 km/h
Temperatura: -1°C
Tačka rose: -1°C
Vlažnost: 100%
Pritisak: 1015 hPa
Oblaci: Mostly Cloudy
Vidljivost: 10 km
Cloud details: Mostly Cloudy 1524 m
2018/12/11 04:00 LYKV 110400Z 29002KT 9999 BKN050 M01/M01 Q1015 NOSIG
LYNI - Niš, Srbija
Ažurirano: 11/12/2018 04:30
Mostly Cloudy
Mostly Cloudy
 Pravac vetra JZ
Vetar: JZ 7 km/h
Temperatura: 1°C
Osećaj hladnoće: -2°C
Tačka rose: 0°C
Vlažnost: 93%
Pritisak: 1014 hPa
Oblaci: Mostly Cloudy
Vidljivost: 10 km
Cloud details: Mostly Cloudy 823 m
2018/12/11 03:30 LYNI 110330Z 23004KT 200V270 9999 BKN027 01/00 Q1014 NOSIG
BKPR - Priština, Srbija
Ažurirano: 11/12/2018 04:30
Partly Cloudy
Partly Cloudy
 Pravac vetra SZ
Vetar: SZ 9 km/h
Temperatura: 0°C
Osećaj hladnoće: -3°C
Tačka rose: -6°C
Vlažnost: 64%
Pritisak: 1013 hPa
Oblaci: Partly Cloudy
Vidljivost: 10 km
Cloud details: Partly Cloudy 2134 m
2018/12/11 03:30 BKPR 110330Z 32005KT 9999 SCT070 M00/M06 Q1013 NOSIG RMK 17010095
 
LHPP - Pecs / Pogany, Hungary
Ažurirano: 10/12/2018 17:45
NOT Current
Vedro
Vedro
 Pravac vetra SSZ
Vetar: SSZ 17 km/h
Temperatura: 4°C
Osećaj hladnoće: 0°C
Tačka rose: -3°C
Vlažnost: 61%
Pritisak: 1015 hPa
Pregled: Vedro
Vidljivost: greater than 10 km
2018/12/10 16:45 LHPP 101645Z 34009KT CAVOK 04/M03 Q1015
LHUD - Szeged, Hungary
Ažurirano: 11/12/2018 04:45
Vedro
Vedro
 Pravac vetra Z
Vetar: Z 17 km/h
Temperatura: 0°C
Osećaj hladnoće: -4°C
Tačka rose: -2°C
Vlažnost: 87%
Pritisak: 1015 hPa
Pregled: Vedro
Vidljivost: greater than 10 km
2018/12/11 03:45 LHUD 110345Z 28009KT CAVOK M00/M02 Q1015
LRTR - Timisoara, Romania
Ažurirano: 11/12/2018 05:00
Vedro
Vedro
 Pravac vetra ZSZ
Vetar: ZSZ 11 km/h
Temperatura: -3°C
Osećaj hladnoće: -7°C
Tačka rose: -3°C
Vlažnost: 100%
Pritisak: 1013 hPa
Pregled: Vedro
Vidljivost: greater than 10 km
2018/12/11 04:00 LRTR 110400Z 29006KT CAVOK M03/M03 Q1013
 
LRCV - Craiova, Romania
Ažurirano: 11/12/2018 05:00
Oblačno
Oblačno
 Pravac vetra Z
Vetar: Z 13 km/h
Temperatura: 2°C
Osećaj hladnoće: -1°C
Tačka rose: -1°C
Vlažnost: 81%
Pritisak: 1009 hPa
Oblaci: Oblačno
Vidljivost: 10 km
Cloud details: Oblačno 2896 m
2018/12/11 04:00 LRCV 110400Z AUTO 26007KT 9999 OVC095/// 02/M01 Q1009
LBSF - Sofia, Bulgaria
Ažurirano: 11/12/2018 05:00
Few Clouds
Few Clouds
 Pravac vetra Z
Vetar: Z 19 km/h
Temperatura: 1°C
Osećaj hladnoće: -4°C
Tačka rose: -3°C
Vlažnost: 75%
Pritisak: 1011 hPa
Oblaci: Few Clouds
Vidljivost: 10 km
Cloud details: Few Clouds 1981 m
2018/12/11 04:00 LBSF 110400Z 28010KT 9999 FEW065 01/M03 Q1011 R99/29//95 NOSIG
LWSK - Skoplje, Makedonija
Ažurirano: 11/12/2018 05:00
Partly Cloudy
Partly Cloudy
 Pravac vetra SSI
Vetar: SSI 4 km/h
Temperatura: 0°C
Tačka rose: -2°C
Vlažnost: 87%
Pritisak: 1014 hPa
Oblaci: Partly Cloudy
Vidljivost: 10 km
Cloud details: Partly Cloudy 2438 m
2018/12/11 04:00 LWSK 110400Z 03002KT 9999 SCT080 M00/M02 Q1014 NOSIG
 
LYPG - Podgorica, Crna Gora
Ažurirano: 11/12/2018 05:00
Vedro
Vedro
 Pravac vetra SSZ
Vetar: SSZ 19 km/h
Temperatura: 5°C
Osećaj hladnoće: 1°C
Tačka rose: -6°C
Vlažnost: 45%
Pritisak: 1014 hPa
Pregled: Vedro
Vidljivost: greater than 10 km
2018/12/11 04:00 LYPG 110400Z 33010KT CAVOK 05/M06 Q1014 NOSIG
LQSA - Sarajevo, Bosna i Hercegovina
Ažurirano: 11/12/2018 05:00
Mist, Pretežno oblačno
Mist, Pretežno oblačno
 Pravac vetra varies
Vetar: varies 4 km/h
Temperatura: -1°C
Tačka rose: -1°C
Vlažnost: 100%
Pritisak: 1015 hPa
Pregled: Mist
Oblaci: Mostly Cloudy
Vidljivost: 2 km
Cloud details: Mostly Cloudy 91 m
2018/12/11 04:00 LQSA 110400Z VRB02KT 2000 BR BKN003 M01/M01 Q1015
LDOS - Osijek, Hrvatksa
Ažurirano: 11/12/2018 05:00
Vedro
Vedro
 Pravac vetra Z
Vetar: Z 19 km/h
Temperatura: -2°C
Osećaj hladnoće: -8°C
Tačka rose: -3°C
Vlažnost: 93%
Pritisak: 1016 hPa
Pregled: Vedro
Vidljivost: greater than 10 km
2018/12/11 04:00 LDOS 110400Z 28010KT CAVOK M02/M03 Q1016